Terminal Aerodrome Forecast
Issued by NWS

Home | Current Version | Previous Version | Graphics & Text | Print | Product List | Glossary On
Versions: 1 2 3 4 5 6 7 8 9 10 11 12 13 14 15 16 17 18 19 20
000
FTUS43 KABR 240535
TAFPIR
TAF
KPIR 240535Z 2406/2506 VRB04KT P6SM SCT150
     FM241600 21006KT P6SM SCT060
     FM250300 10010KT P6SM VCTS OVC070CB=

USA.gov is the U.S. government's official web portal to all federal, state and local government web resources and services.